sensor_id;sensor_type;location;lat;lon;timestamp;pressure;altitude;pressure_sealevel;temperature;humidity
75219;BME280;63801;49.414;19.474;2023-07-22T00:00:06;93478.59;;;16.83;69.73
75219;BME280;63801;49.414;19.474;2023-07-22T00:02:09;93477.81;;;16.86;69.53
75219;BME280;63801;49.414;19.474;2023-07-22T00:04:09;93479.34;;;16.87;70.18
75219;BME280;63801;49.414;19.474;2023-07-22T00:06:10;93479.34;;;16.87;69.91
75219;BME280;63801;49.414;19.474;2023-07-22T00:08:10;93474.69;;;16.84;70.95
75219;BME280;63801;49.414;19.474;2023-07-22T00:10:11;93466.94;;;16.79;70.29
75219;BME280;63801;49.414;19.474;2023-07-22T00:12:11;93470.06;;;16.77;70.45
75219;BME280;63801;49.414;19.474;2023-07-22T00:14:12;93469.69;;;16.72;70.42
75219;BME280;63801;49.414;19.474;2023-07-22T00:16:13;93456.09;;;16.61;70.43
75219;BME280;63801;49.414;19.474;2023-07-22T00:18:13;93461.91;;;16.67;70.90
75219;BME280;63801;49.414;19.474;2023-07-22T00:20:13;93449.09;;;16.60;70.78
75219;BME280;63801;49.414;19.474;2023-07-22T00:22:14;93459.97;;;16.56;70.95
75219;BME280;63801;49.414;19.474;2023-07-22T00:24:15;93432.81;;;16.35;70.40
75219;BME280;63801;49.414;19.474;2023-07-22T00:26:15;93459.22;;;16.49;70.97
75219;BME280;63801;49.414;19.474;2023-07-22T00:28:16;93458.81;;;16.43;70.90
75219;BME280;63801;49.414;19.474;2023-07-22T00:30:16;93460.78;;;16.39;70.89
75219;BME280;63801;49.414;19.474;2023-07-22T00:32:17;93454.59;;;16.32;71.15
75219;BME280;63801;49.414;19.474;2023-07-22T00:34:17;93463.88;;;16.34;71.09
75219;BME280;63801;49.414;19.474;2023-07-22T00:36:18;93468.56;;;16.37;71.09
75219;BME280;63801;49.414;19.474;2023-07-22T00:38:18;93467.38;;;16.38;71.25
75219;BME280;63801;49.414;19.474;2023-07-22T00:40:19;93475.16;;;16.40;71.16
75219;BME280;63801;49.414;19.474;2023-07-22T00:42:20;93466.22;;;16.39;71.18
75219;BME280;63801;49.414;19.474;2023-07-22T00:44:20;93465.81;;;16.44;71.17
75219;BME280;63801;49.414;19.474;2023-07-22T00:46:21;93466.97;;;16.47;71.22
75219;BME280;63801;49.414;19.474;2023-07-22T00:48:21;93460.75;;;16.46;70.84
75219;BME280;63801;49.414;19.474;2023-07-22T00:50:23;93461.94;;;16.45;70.93
75219;BME280;63801;49.414;19.474;2023-07-22T00:52:24;93462.72;;;16.35;71.79
75219;BME280;63801;49.414;19.474;2023-07-22T00:54:24;93463.13;;;16.27;71.48
75219;BME280;63801;49.414;19.474;2023-07-22T00:56:25;93460.03;;;16.21;71.88
75219;BME280;63801;49.414;19.474;2023-07-22T00:58:26;93446.81;;;16.16;72.30
75219;BME280;63801;49.414;19.474;2023-07-22T01:00:26;93446.44;;;16.14;72.41
75219;BME280;63801;49.414;19.474;2023-07-22T01:02:26;93439.84;;;16.08;72.59
75219;BME280;63801;49.414;19.474;2023-07-22T01:04:27;93446.06;;;16.05;72.47
75219;BME280;63801;49.414;19.474;2023-07-22T01:06:28;93458.47;;;15.99;72.92
75219;BME280;63801;49.414;19.474;2023-07-22T01:08:30;93466.25;;;15.93;73.62
75219;BME280;63801;49.414;19.474;2023-07-22T01:10:30;93482.56;;;15.90;73.24
75219;BME280;63801;49.414;19.474;2023-07-22T01:12:31;93474.03;;;15.84;73.16
75219;BME280;63801;49.414;19.474;2023-07-22T01:14:36;93452.28;;;15.66;73.39
75219;BME280;63801;49.414;19.474;2023-07-22T01:16:37;93463.16;;;15.73;73.29
75219;BME280;63801;49.414;19.474;2023-07-22T01:18:37;93462.38;;;15.69;74.20
75219;BME280;63801;49.414;19.474;2023-07-22T01:20:38;93453.81;;;15.53;74.39
75219;BME280;63801;49.414;19.474;2023-07-22T01:22:38;93454.19;;;15.55;74.90
75219;BME280;63801;49.414;19.474;2023-07-22T01:24:41;93456.47;;;15.50;75.19
75219;BME280;63801;49.414;19.474;2023-07-22T01:26:41;93456.06;;;15.41;75.03
75219;BME280;63801;49.414;19.474;2023-07-22T01:28:43;93454.13;;;15.41;75.52
75219;BME280;63801;49.414;19.474;2023-07-22T01:30:43;93426.94;;;15.23;75.93
75219;BME280;63801;49.414;19.474;2023-07-22T01:32:46;93441.34;;;15.38;75.42
75219;BME280;63801;49.414;19.474;2023-07-22T01:34:47;93434.34;;;15.37;76.11
75219;BME280;63801;49.414;19.474;2023-07-22T01:36:48;93425.78;;;15.28;76.80
75219;BME280;63801;49.414;19.474;2023-07-22T01:38:48;93441.34;;;15.31;77.36
75219;BME280;63801;49.414;19.474;2023-07-22T01:40:49;93433.53;;;15.22;77.80
75219;BME280;63801;49.414;19.474;2023-07-22T01:42:49;93426.16;;;15.16;77.25
75219;BME280;63801;49.414;19.474;2023-07-22T01:44:50;93427.72;;;15.17;77.77
75219;BME280;63801;49.414;19.474;2023-07-22T01:46:50;93429.66;;;15.16;78.19
75219;BME280;63801;49.414;19.474;2023-07-22T01:48:51;93424.59;;;15.11;78.11
75219;BME280;63801;49.414;19.474;2023-07-22T01:50:51;93441.28;;;15.20;77.69
75219;BME280;63801;49.414;19.474;2023-07-22T01:52:51;93439.38;;;15.21;77.40
75219;BME280;63801;49.414;19.474;2023-07-22T01:54:52;93432.75;;;15.11;77.67
75219;BME280;63801;49.414;19.474;2023-07-22T01:56:52;93445.94;;;15.23;77.15
75219;BME280;63801;49.414;19.474;2023-07-22T01:58:52;93446.72;;;15.24;78.04
75219;BME280;63801;49.414;19.474;2023-07-22T02:00:53;93451.38;;;15.20;77.71
75219;BME280;63801;49.414;19.474;2023-07-22T02:02:53;93438.19;;;15.15;77.97
75219;BME280;63801;49.414;19.474;2023-07-22T02:04:53;93456.44;;;15.25;78.02
75219;BME280;63801;49.414;19.474;2023-07-22T02:06:54;93455.28;;;15.26;77.98
75219;BME280;63801;49.414;19.474;2023-07-22T02:08:54;93466.16;;;15.26;77.71
75219;BME280;63801;49.414;19.474;2023-07-22T02:11:03;93463.81;;;15.28;78.09
75219;BME280;63801;49.414;19.474;2023-07-22T02:13:04;93459.94;;;15.29;77.83
75219;BME280;63801;49.414;19.474;2023-07-22T02:15:05;93465.78;;;15.31;77.85
75219;BME280;63801;49.414;19.474;2023-07-22T02:17:05;93453.72;;;15.25;77.67
75219;BME280;63801;49.414;19.474;2023-07-22T02:19:09;93458.78;;;15.30;77.52
75219;BME280;63801;49.414;19.474;2023-07-22T02:21:09;93471.22;;;15.31;77.88
75219;BME280;63801;49.414;19.474;2023-07-22T02:23:09;93470.81;;;15.29;78.18
75219;BME280;63801;49.414;19.474;2023-07-22T02:25:10;93470.03;;;15.25;78.42
75219;BME280;63801;49.414;19.474;2023-07-22T02:27:10;93478.53;;;15.23;78.65
75219;BME280;63801;49.414;19.474;2023-07-22T02:29:10;93483.19;;;15.23;78.32
75219;BME280;63801;49.414;19.474;2023-07-22T02:31:12;93475.81;;;15.16;78.42
75219;BME280;63801;49.414;19.474;2023-07-22T02:33:13;93486.31;;;15.25;78.38
75219;BME280;63801;49.414;19.474;2023-07-22T02:35:14;93484.75;;;15.24;78.76
75219;BME280;63801;49.414;19.474;2023-07-22T02:37:14;93487.88;;;15.26;78.69
75219;BME280;63801;49.414;19.474;2023-07-22T02:39:14;93483.97;;;15.27;78.21
75219;BME280;63801;49.414;19.474;2023-07-22T02:41:15;93478.16;;;15.25;78.33
75219;BME280;63801;49.414;19.474;2023-07-22T02:43:15;93494.84;;;15.27;78.43
75219;BME280;63801;49.414;19.474;2023-07-22T02:45:16;93477.78;;;15.26;78.43
75219;BME280;63801;49.414;19.474;2023-07-22T02:47:16;93484.75;;;15.24;78.52
75219;BME280;63801;49.414;19.474;2023-07-22T02:49:16;93476.59;;;15.24;78.14
75219;BME280;63801;49.414;19.474;2023-07-22T02:51:17;93482.41;;;15.22;78.52
75219;BME280;63801;49.414;19.474;2023-07-22T02:53:17;93486.31;;;15.21;78.12
75219;BME280;63801;49.414;19.474;2023-07-22T02:55:19;93498.69;;;15.19;78.45
75219;BME280;63801;49.414;19.474;2023-07-22T02:57:19;93502.56;;;15.18;78.29
75219;BME280;63801;49.414;19.474;2023-07-22T02:59:19;93509.56;;;15.19;78.17
75219;BME280;63801;49.414;19.474;2023-07-22T03:01:20;93504.13;;;15.19;78.17
75219;BME280;63801;49.414;19.474;2023-07-22T03:03:20;93500.25;;;15.16;78.42
75219;BME280;63801;49.414;19.474;2023-07-22T03:05:21;93506.06;;;15.15;78.61
75219;BME280;63801;49.414;19.474;2023-07-22T03:07:21;93511.09;;;15.13;78.26
75219;BME280;63801;49.414;19.474;2023-07-22T03:09:21;93507.19;;;15.10;78.55
75219;BME280;63801;49.414;19.474;2023-07-22T03:11:22;93498.63;;;15.05;78.70
75219;BME280;63801;49.414;19.474;2023-07-22T03:13:25;93504.06;;;15.05;78.96
75219;BME280;63801;49.414;19.474;2023-07-22T03:15:30;93509.50;;;15.05;79.05
75219;BME280;63801;49.414;19.474;2023-07-22T03:17:30;93512.22;;;15.05;79.08
75219;BME280;63801;49.414;19.474;2023-07-22T03:19:30;93513.41;;;15.07;79.40
75219;BME280;63801;49.414;19.474;2023-07-22T03:21:31;93522.72;;;15.10;79.36
75219;BME280;63801;49.414;19.474;2023-07-22T03:23:31;93514.56;;;15.10;79.26
75219;BME280;63801;49.414;19.474;2023-07-22T03:25:32;93520.78;;;15.10;79.48
75219;BME280;63801;49.414;19.474;2023-07-22T03:27:33;93516.53;;;15.13;79.64
75219;BME280;63801;49.414;19.474;2023-07-22T03:29:33;93517.69;;;15.12;79.35
75219;BME280;63801;49.414;19.474;2023-07-22T03:31:34;93523.91;;;15.12;79.56
75219;BME280;63801;49.414;19.474;2023-07-22T03:33:34;93523.50;;;15.14;80.16
75219;BME280;63801;49.414;19.474;2023-07-22T03:35:34;93524.28;;;15.18;79.85
75219;BME280;63801;49.414;19.474;2023-07-22T03:37:36;93502.19;;;15.09;79.69
75219;BME280;63801;49.414;19.474;2023-07-22T03:39:37;93516.56;;;15.27;79.75
75219;BME280;63801;49.414;19.474;2023-07-22T03:41:37;93521.25;;;15.30;80.01
75219;BME280;63801;49.414;19.474;2023-07-22T03:43:37;93506.53;;;15.31;79.51
75219;BME280;63801;49.414;19.474;2023-07-22T03:45:38;93518.59;;;15.44;80.02
75219;BME280;63801;49.414;19.474;2023-07-22T03:47:39;93520.53;;;15.47;79.96
75219;BME280;63801;49.414;19.474;2023-07-22T03:49:40;93514.72;;;15.49;79.85
75219;BME280;63801;49.414;19.474;2023-07-22T03:51:40;93515.13;;;15.54;80.23
75219;BME280;63801;49.414;19.474;2023-07-22T03:53:41;93514.75;;;15.59;80.23
75219;BME280;63801;49.414;19.474;2023-07-22T03:55:41;93514.38;;;15.64;80.08
75219;BME280;63801;49.414;19.474;2023-07-22T03:57:41;93496.50;;;15.56;80.32
75219;BME280;63801;49.414;19.474;2023-07-22T03:59:42;93519.06;;;15.75;80.07
75219;BME280;63801;49.414;19.474;2023-07-22T04:01:42;93513.25;;;15.80;80.24
75219;BME280;63801;49.414;19.474;2023-07-22T04:03:43;93521.41;;;15.87;80.46
75219;BME280;63801;49.414;19.474;2023-07-22T04:05:43;93512.88;;;15.92;80.31
75219;BME280;63801;49.414;19.474;2023-07-22T04:07:44;93515.22;;;15.97;80.52
75219;BME280;63801;49.414;19.474;2023-07-22T04:09:45;93510.53;;;16.04;80.50
75219;BME280;63801;49.414;19.474;2023-07-22T04:11:45;93523.34;;;16.11;80.14
75219;BME280;63801;49.414;19.474;2023-07-22T04:13:46;93518.31;;;16.13;79.74
75219;BME280;63801;49.414;19.474;2023-07-22T04:15:47;93522.22;;;16.19;79.95
75219;BME280;63801;49.414;19.474;2023-07-22T04:17:48;93508.22;;;16.10;79.84
75219;BME280;63801;49.414;19.474;2023-07-22T04:19:51;93536.97;;;16.25;80.18
75219;BME280;63801;49.414;19.474;2023-07-22T04:21:52;93519.09;;;16.24;80.16
75219;BME280;63801;49.414;19.474;2023-07-22T04:23:52;93540.06;;;16.38;79.74
75219;BME280;63801;49.414;19.474;2023-07-22T04:25:53;93531.13;;;16.44;80.08
75219;BME280;63801;49.414;19.474;2023-07-22T04:27:54;93528.38;;;16.51;80.01
75219;BME280;63801;49.414;19.474;2023-07-22T04:29:54;93536.16;;;16.56;79.60
75219;BME280;63801;49.414;19.474;2023-07-22T04:32:01;93534.25;;;16.60;79.71
75219;BME280;63801;49.414;19.474;2023-07-22T04:34:01;93535.81;;;16.61;79.17
75219;BME280;63801;49.414;19.474;2023-07-22T04:36:02;93529.97;;;16.67;79.84
75219;BME280;63801;49.414;19.474;2023-07-22T04:38:02;93536.97;;;16.71;79.48
75219;BME280;63801;49.414;19.474;2023-07-22T04:40:03;93540.84;;;16.74;79.81
75219;BME280;63801;49.414;19.474;2023-07-22T04:42:06;93540.84;;;16.74;79.59
75219;BME280;63801;49.414;19.474;2023-07-22T04:44:06;93538.88;;;16.85;79.44
75219;BME280;63801;49.414;19.474;2023-07-22T04:46:07;93543.53;;;16.88;79.54
75219;BME280;63801;49.414;19.474;2023-07-22T04:48:08;93535.38;;;16.81;79.67
75219;BME280;63801;49.414;19.474;2023-07-22T04:50:09;93540.81;;;16.88;79.54
75219;BME280;63801;49.414;19.474;2023-07-22T04:52:10;93549.75;;;16.92;79.42
75219;BME280;63801;49.414;19.474;2023-07-22T04:54:10;93559.47;;;16.93;79.51
75219;BME280;63801;49.414;19.474;2023-07-22T04:56:10;93561.03;;;16.94;79.37
75219;BME280;63801;49.414;19.474;2023-07-22T04:58:10;93563.75;;;16.94;79.62
75219;BME280;63801;49.414;19.474;2023-07-22T05:00:12;93541.97;;;16.83;79.46
75219;BME280;63801;49.414;19.474;2023-07-22T05:02:19;93553.22;;;16.96;79.07
75219;BME280;63801;49.414;19.474;2023-07-22T05:04:19;93558.66;;;16.99;79.52
75219;BME280;63801;49.414;19.474;2023-07-22T05:06:19;93553.97;;;17.11;79.90
75219;BME280;63801;49.414;19.474;2023-07-22T05:08:20;93564.06;;;17.17;79.36
75219;BME280;63801;49.414;19.474;2023-07-22T05:10:20;93562.91;;;17.18;79.03
75219;BME280;63801;49.414;19.474;2023-07-22T05:12:20;93562.53;;;17.16;79.23
75219;BME280;63801;49.414;19.474;2023-07-22T05:14:21;93563.28;;;17.20;78.99
75219;BME280;63801;49.414;19.474;2023-07-22T05:16:21;93555.91;;;17.21;79.17
75219;BME280;63801;49.414;19.474;2023-07-22T05:18:21;93564.47;;;17.19;79.00
75219;BME280;63801;49.414;19.474;2023-07-22T05:20:22;93564.06;;;17.17;79.19
75219;BME280;63801;49.414;19.474;2023-07-22T05:22:22;93555.88;;;17.17;78.95
75219;BME280;63801;49.414;19.474;2023-07-22T05:24:22;93564.06;;;17.21;79.10
75219;BME280;63801;49.414;19.474;2023-07-22T05:26:23;93559.75;;;17.27;78.79
75219;BME280;63801;49.414;19.474;2023-07-22T05:28:23;93556.25;;;17.30;79.19
75219;BME280;63801;49.414;19.474;2023-07-22T05:30:24;93562.47;;;17.34;78.87
75219;BME280;63801;49.414;19.474;2023-07-22T05:32:24;93563.22;;;17.38;79.15
75219;BME280;63801;49.414;19.474;2023-07-22T05:34:24;93556.97;;;17.41;79.17
75219;BME280;63801;49.414;19.474;2023-07-22T05:36:25;93565.50;;;17.50;79.19
75219;BME280;63801;49.414;19.474;2023-07-22T05:38:25;93564.72;;;17.57;78.53
75219;BME280;63801;49.414;19.474;2023-07-22T05:40:25;93574.06;;;17.59;78.85
75219;BME280;63801;49.414;19.474;2023-07-22T05:42:26;93570.56;;;17.59;78.37
75219;BME280;63801;49.414;19.474;2023-07-22T05:44:26;93570.19;;;17.60;78.63
75219;BME280;63801;49.414;19.474;2023-07-22T05:46:26;93576.38;;;17.68;78.29
75219;BME280;63801;49.414;19.474;2023-07-22T05:48:27;93580.25;;;17.67;78.12
75219;BME280;63801;49.414;19.474;2023-07-22T05:50:27;93576.38;;;17.68;78.24
75219;BME280;63801;49.414;19.474;2023-07-22T05:52:27;93577.13;;;17.72;78.65
75219;BME280;63801;49.414;19.474;2023-07-22T05:54:28;93573.59;;;17.75;78.61
75219;BME280;63801;49.414;19.474;2023-07-22T05:56:28;93576.72;;;17.77;78.63
75219;BME280;63801;49.414;19.474;2023-07-22T05:58:28;93569.69;;;17.76;78.36
75219;BME280;63801;49.414;19.474;2023-07-22T06:00:29;93568.81;;;17.97;79.25
75219;BME280;63801;49.414;19.474;2023-07-22T06:02:29;93568.91;;;18.37;78.35
75219;BME280;63801;49.414;19.474;2023-07-22T06:04:29;93576.50;;;18.71;78.00
75219;BME280;63801;49.414;19.474;2023-07-22T06:06:30;93580.94;;;18.95;77.33
75219;BME280;63801;49.414;19.474;2023-07-22T06:08:30;93583.31;;;19.30;76.50
75219;BME280;63801;49.414;19.474;2023-07-22T06:10:31;93584.59;;;19.60;75.21
75219;BME280;63801;49.414;19.474;2023-07-22T06:12:32;93589.81;;;19.44;74.10
75219;BME280;63801;49.414;19.474;2023-07-22T06:14:32;93591.22;;;19.21;73.92
75219;BME280;63801;49.414;19.474;2023-07-22T06:16:32;93584.75;;;19.05;74.39
75219;BME280;63801;49.414;19.474;2023-07-22T06:18:33;93588.03;;;18.85;74.31
75219;BME280;63801;49.414;19.474;2023-07-22T06:20:33;93590.56;;;18.66;74.92
75219;BME280;63801;49.414;19.474;2023-07-22T06:22:34;93593.72;;;18.61;75.17
75219;BME280;63801;49.414;19.474;2023-07-22T06:24:34;93588.66;;;18.63;75.69
75219;BME280;63801;49.414;19.474;2023-07-22T06:26:34;93597.94;;;18.69;75.39
75219;BME280;63801;49.414;19.474;2023-07-22T06:28:35;93595.97;;;18.73;75.96
75219;BME280;63801;49.414;19.474;2023-07-22T06:30:35;93606.06;;;18.79;75.68
75219;BME280;63801;49.414;19.474;2023-07-22T06:32:39;93603.22;;;18.90;76.05
75219;BME280;63801;49.414;19.474;2023-07-22T06:34:39;93607.47;;;19.36;77.78
75219;BME280;63801;49.414;19.474;2023-07-22T06:36:39;93611.22;;;19.86;75.46
75219;BME280;63801;49.414;19.474;2023-07-22T06:38:40;93600.56;;;19.95;74.51
75219;BME280;63801;49.414;19.474;2023-07-22T06:40:40;93605.28;;;19.91;73.93
75219;BME280;63801;49.414;19.474;2023-07-22T06:42:40;93613.22;;;19.82;73.87
75219;BME280;63801;49.414;19.474;2023-07-22T06:44:42;93605.53;;;19.70;73.52
75219;BME280;63801;49.414;19.474;2023-07-22T06:46:43;93614.66;;;19.60;74.24
75219;BME280;63801;49.414;19.474;2023-07-22T06:48:44;93620.56;;;19.55;73.87
75219;BME280;63801;49.414;19.474;2023-07-22T06:50:48;93610.59;;;19.38;73.69
75219;BME280;63801;49.414;19.474;2023-07-22T06:52:49;93618.34;;;19.43;73.97
75219;BME280;63801;49.414;19.474;2023-07-22T06:54:49;93621.91;;;19.36;73.17
75219;BME280;63801;49.414;19.474;2023-07-22T06:56:50;93613.06;;;19.25;73.43
75219;BME280;63801;49.414;19.474;2023-07-22T06:58:50;93611.84;;;19.26;73.69
75219;BME280;63801;49.414;19.474;2023-07-22T07:00:54;93614.19;;;19.27;73.55
75219;BME280;63801;49.414;19.474;2023-07-22T07:02:55;93618.09;;;19.26;73.60
75219;BME280;63801;49.414;19.474;2023-07-22T07:04:56;93624.06;;;19.89;75.21
75219;BME280;63801;49.414;19.474;2023-07-22T07:06:56;93617.31;;;21.04;73.82
75219;BME280;63801;49.414;19.474;2023-07-22T07:08:59;93614.56;;;22.30;72.00
75219;BME280;63801;49.414;19.474;2023-07-22T07:11:00;93616.88;;;23.32;70.22
75219;BME280;63801;49.414;19.474;2023-07-22T07:13:01;93618.88;;;24.31;68.75
75219;BME280;63801;49.414;19.474;2023-07-22T07:15:01;93613.38;;;25.19;66.59
75219;BME280;63801;49.414;19.474;2023-07-22T07:17:02;93622.78;;;25.69;65.76
75219;BME280;63801;49.414;19.474;2023-07-22T07:19:02;93621.94;;;26.03;62.95
75219;BME280;63801;49.414;19.474;2023-07-22T07:21:03;93615.41;;;25.87;62.09
75219;BME280;63801;49.414;19.474;2023-07-22T07:23:03;93624.53;;;25.28;61.89
75219;BME280;63801;49.414;19.474;2023-07-22T07:25:04;93633.38;;;24.60;61.20
75219;BME280;63801;49.414;19.474;2023-07-22T07:27:04;93635.31;;;23.93;61.18
75219;BME280;63801;49.414;19.474;2023-07-22T07:29:05;93636.81;;;23.36;61.63
75219;BME280;63801;49.414;19.474;2023-07-22T07:31:05;93646.94;;;22.91;62.58
75219;BME280;63801;49.414;19.474;2023-07-22T07:33:05;93652.38;;;22.58;62.91
75219;BME280;63801;49.414;19.474;2023-07-22T07:35:06;93649.97;;;22.24;63.17
75219;BME280;63801;49.414;19.474;2023-07-22T07:37:07;93641.44;;;21.79;63.52
75219;BME280;63801;49.414;19.474;2023-07-22T07:39:07;93655.50;;;21.62;64.16
75219;BME280;63801;49.414;19.474;2023-07-22T07:41:08;93636.16;;;21.26;64.32
75219;BME280;63801;49.414;19.474;2023-07-22T07:43:08;93658.56;;;21.21;65.03
75219;BME280;63801;49.414;19.474;2023-07-22T07:45:09;93659.00;;;21.19;65.37
75219;BME280;63801;49.414;19.474;2023-07-22T07:47:09;93654.03;;;21.57;66.28
75219;BME280;63801;49.414;19.474;2023-07-22T07:49:10;93655.09;;;21.83;65.31
75219;BME280;63801;49.414;19.474;2023-07-22T07:51:12;93658.13;;;21.88;64.78
75219;BME280;63801;49.414;19.474;2023-07-22T07:53:12;93651.44;;;21.89;64.97
75219;BME280;63801;49.414;19.474;2023-07-22T07:55:13;93666.53;;;22.01;64.92
75219;BME280;63801;49.414;19.474;2023-07-22T07:57:13;93659.38;;;22.07;64.43
75219;BME280;63801;49.414;19.474;2023-07-22T07:59:14;93651.63;;;22.02;64.33
75219;BME280;63801;49.414;19.474;2023-07-22T08:01:14;93658.22;;;21.85;64.14
75219;BME280;63801;49.414;19.474;2023-07-22T08:03:15;93654.03;;;21.57;63.43
75219;BME280;63801;49.414;19.474;2023-07-22T08:05:15;93656.22;;;21.23;63.45
75219;BME280;63801;49.414;19.474;2023-07-22T08:07:16;93683.50;;;21.03;63.38
75219;BME280;63801;49.414;19.474;2023-07-22T08:09:16;93689.06;;;20.73;63.35
75219;BME280;63801;49.414;19.474;2023-07-22T08:11:19;93704.31;;;20.47;64.08
75219;BME280;63801;49.414;19.474;2023-07-22T08:13:19;93712.44;;;20.20;64.41
75219;BME280;63801;49.414;19.474;2023-07-22T08:15:19;93717.41;;;19.98;64.69
75219;BME280;63801;49.414;19.474;2023-07-22T08:17:20;93711.28;;;19.84;65.00
75219;BME280;63801;49.414;19.474;2023-07-22T08:19:20;93708.25;;;19.74;65.65
75219;BME280;63801;49.414;19.474;2023-07-22T08:21:20;93708.69;;;19.73;65.82
75219;BME280;63801;49.414;19.474;2023-07-22T08:23:21;93704.78;;;19.70;66.19
75219;BME280;63801;49.414;19.474;2023-07-22T08:25:21;93692.03;;;19.60;66.53
75219;BME280;63801;49.414;19.474;2023-07-22T08:27:22;93718.44;;;19.74;66.78
75219;BME280;63801;49.414;19.474;2023-07-22T08:29:24;93712.16;;;19.77;66.33
75219;BME280;63801;49.414;19.474;2023-07-22T08:31:25;93726.81;;;19.94;67.09
75219;BME280;63801;49.414;19.474;2023-07-22T08:33:25;93727.44;;;20.42;67.49
75219;BME280;63801;49.414;19.474;2023-07-22T08:35:26;93735.78;;;20.92;67.01
75219;BME280;63801;49.414;19.474;2023-07-22T08:37:27;93732.31;;;21.38;66.18
75219;BME280;63801;49.414;19.474;2023-07-22T08:39:27;93739.06;;;21.80;65.90
75219;BME280;63801;49.414;19.474;2023-07-22T08:41:27;93721.28;;;21.88;64.24
75219;BME280;63801;49.414;19.474;2023-07-22T08:43:29;93742.44;;;21.88;63.45
75219;BME280;63801;49.414;19.474;2023-07-22T08:45:30;93750.75;;;21.84;64.22
75219;BME280;63801;49.414;19.474;2023-07-22T08:47:32;93739.41;;;22.06;64.17
75219;BME280;63801;49.414;19.474;2023-07-22T08:49:34;93734.91;;;22.15;63.78
75219;BME280;63801;49.414;19.474;2023-07-22T08:51:34;93746.41;;;22.30;63.31
75219;BME280;63801;49.414;19.474;2023-07-22T08:53:37;93738.88;;;22.34;63.17
75219;BME280;63801;49.414;19.474;2023-07-22T08:55:38;93753.78;;;22.33;62.60
75219;BME280;63801;49.414;19.474;2023-07-22T08:57:41;93756.88;;;22.35;62.38
75219;BME280;63801;49.414;19.474;2023-07-22T08:59:42;93754.06;;;22.19;61.56
75219;BME280;63801;49.414;19.474;2023-07-22T09:01:44;93762.84;;;22.10;62.19
75219;BME280;63801;49.414;19.474;2023-07-22T09:03:47;93752.66;;;22.11;61.74
75219;BME280;63801;49.414;19.474;2023-07-22T09:05:47;93756.25;;;22.27;61.94
75219;BME280;63801;49.414;19.474;2023-07-22T09:07:48;93760.28;;;22.43;61.32
75219;BME280;63801;49.414;19.474;2023-07-22T09:09:49;93749.91;;;22.50;60.93
75219;BME280;63801;49.414;19.474;2023-07-22T09:11:51;93750.88;;;22.60;60.91
75219;BME280;63801;49.414;19.474;2023-07-22T09:13:53;93735.09;;;22.64;60.76
75219;BME280;63801;49.414;19.474;2023-07-22T09:15:56;93754.28;;;22.87;60.04
75219;BME280;63801;49.414;19.474;2023-07-22T09:17:57;93758.22;;;23.02;60.19
75219;BME280;63801;49.414;19.474;2023-07-22T09:19:58;93750.28;;;23.24;60.04
75219;BME280;63801;49.414;19.474;2023-07-22T09:21:58;93728.72;;;23.22;59.31
75219;BME280;63801;49.414;19.474;2023-07-22T09:23:59;93751.81;;;23.41;58.59
75219;BME280;63801;49.414;19.474;2023-07-22T09:26:13;93766.84;;;23.56;58.78
75219;BME280;63801;49.414;19.474;2023-07-22T09:28:13;93769.94;;;23.75;58.43
75219;BME280;63801;49.414;19.474;2023-07-22T09:30:30;93769.06;;;23.94;58.09
75219;BME280;63801;49.414;19.474;2023-07-22T09:32:35;93774.94;;;24.08;56.75
75219;BME280;63801;49.414;19.474;2023-07-22T09:34:36;93779.09;;;24.16;56.46
75219;BME280;63801;49.414;19.474;2023-07-22T09:36:53;93781.81;;;24.33;56.52
75219;BME280;63801;49.414;19.474;2023-07-22T09:38:59;93781.72;;;24.36;55.44
75219;BME280;63801;49.414;19.474;2023-07-22T09:41:01;93784.28;;;24.43;55.82
75219;BME280;63801;49.414;19.474;2023-07-22T09:43:02;93777.66;;;24.41;54.68
75219;BME280;63801;49.414;19.474;2023-07-22T09:45:03;93775.19;;;24.30;54.61
75219;BME280;63801;49.414;19.474;2023-07-22T09:47:07;93766.59;;;24.28;53.37
75219;BME280;63801;49.414;19.474;2023-07-22T09:49:09;93759.88;;;24.29;52.66
75219;BME280;63801;49.414;19.474;2023-07-22T09:51:15;93771.09;;;24.06;52.72
75219;BME280;63801;49.414;19.474;2023-07-22T09:53:16;93780.03;;;24.10;53.56
75219;BME280;63801;49.414;19.474;2023-07-22T09:55:18;93780.13;;;24.23;53.58
75219;BME280;63801;49.414;19.474;2023-07-22T09:57:20;93774.41;;;24.30;53.44
75219;BME280;63801;49.414;19.474;2023-07-22T09:59:21;93776.78;;;24.44;53.30
75219;BME280;63801;49.414;19.474;2023-07-22T10:01:24;93781.47;;;24.59;52.90
75219;BME280;63801;49.414;19.474;2023-07-22T10:03:28;93774.78;;;24.73;52.70
75219;BME280;63801;49.414;19.474;2023-07-22T10:05:33;93774.91;;;24.82;52.68
75219;BME280;63801;49.414;19.474;2023-07-22T10:07:35;93773.75;;;24.96;52.47
75219;BME280;63801;49.414;19.474;2023-07-22T10:09:37;93784.16;;;25.04;52.26
75219;BME280;63801;49.414;19.474;2023-07-22T10:11:39;93776.97;;;25.07;51.59
75219;BME280;63801;49.414;19.474;2023-07-22T10:13:39;93775.53;;;25.02;51.44
75219;BME280;63801;49.414;19.474;2023-07-22T10:15:40;93787.81;;;24.85;50.92
75219;BME280;63801;49.414;19.474;2023-07-22T10:17:42;93788.22;;;24.71;51.06
75219;BME280;63801;49.414;19.474;2023-07-22T10:19:42;93781.03;;;24.61;50.70
75219;BME280;63801;49.414;19.474;2023-07-22T10:21:44;93786.31;;;24.55;50.97
75219;BME280;63801;49.414;19.474;2023-07-22T10:23:47;93784.56;;;24.61;50.20
75219;BME280;63801;49.414;19.474;2023-07-22T10:25:48;93781.59;;;24.56;49.22
75219;BME280;63801;49.414;19.474;2023-07-22T10:27:52;93775.00;;;24.37;50.08
75219;BME280;63801;49.414;19.474;2023-07-22T10:29:54;93776.25;;;24.49;49.13
75219;BME280;63801;49.414;19.474;2023-07-22T10:31:55;93777.91;;;24.46;48.25